CDT,Max TemperatureF,Mean TemperatureF,Min TemperatureF,Max Dew PointF,MeanDew PointF,Min DewpointF,Max Humidity, Mean Humidity, Min Humidity, Max Sea Level PressureIn, Mean Sea Level PressureIn, Min Sea Level PressureIn, Max VisibilityMiles, Mean VisibilityMiles, Min VisibilityMiles, Max Wind SpeedMPH, Mean Wind SpeedMPH, Max Gust SpeedMPH,PrecipitationIn, CloudCover, Events, WindDirDegrees
2012-10-1,68,56,44,46,41,37,81,56,35,29.95,29.89,29.84,10,10,10,6,3,,0.00,0,,148
2012-10-2,73,60,46,46,44,41,93,59,31,29.94,29.89,29.85,10,10,7,9,3,,0.00,0,,51
2012-10-3,75,60,44,52,42,36,93,56,24,30.00,29.96,29.92,10,9,0,7,2,,0.00,0,Fog,149
2012-10-4,62,52,42,52,40,30,94,63,32,30.14,30.02,29.95,10,10,7,24,9,29,0.00,2,Rain,241
2012-10-5,46,40,35,32,25,14,81,55,29,30.16,30.11,30.07,10,10,10,17,9,25,0.00,0,,274
2012-10-6,44,40,35,27,25,23,70,56,43,30.20,30.15,30.07,10,10,10,14,7,20,0.00,8,,303
2012-10-7,51,43,35,28,19,10,75,45,19,30.19,30.14,30.07,10,10,10,14,3,18,0.00,3,,254
2012-10-8,62,47,32,30,26,18,70,45,27,30.07,29.95,29.85,10,10,10,26,11,34,0.00,2,,189
2012-10-9,60,50,39,45,35,30,93,62,39,29.92,29.84,29.78,10,10,7,20,12,28,0.11,5,Rain,245
2012-10-10,51,42,32,32,27,21,87,62,30,30.11,30.06,29.92,10,10,10,17,9,25,0.00,2,,267
2012-10-11,60,48,37,41,31,21,81,55,31,30.31,30.09,29.99,10,10,10,23,10,28,0.00,4,Rain,261
2012-10-12,53,42,30,27,20,10,75,45,18,30.45,30.37,30.21,10,10,10,13,7,17,0.00,0,,86
2012-10-13,64,52,41,61,50,34,94,89,70,30.14,29.88,29.72,10,4,0,16,11,20,0.36,8,Fog-Rain,178
2012-10-14,64,53,42,63,52,39,94,90,87,29.81,29.64,29.49,10,6,0,21,8,31,0.82,8,Rain,291
2012-10-15,60,48,37,39,36,32,93,64,34,29.96,29.91,29.82,10,10,10,9,5,,0.00,0,,282
2012-10-16,69,56,44,50,44,37,81,64,40,29.90,29.65,29.45,10,10,10,20,10,28,0.00,1,Rain,132
2012-10-17,64,57,48,55,49,43,94,77,55,29.46,29.39,29.30,10,9,3,17,9,22,0.43,4,Rain,22
2012-10-18,48,45,42,43,41,37,93,85,76,29.37,29.31,29.26,10,10,5,15,10,23,0.01,8,Rain,125
2012-10-19,50,44,39,43,39,36,93,83,58,29.68,29.52,29.37,10,10,5,10,4,20,0.01,7,Rain,14
2012-10-20,59,47,35,41,35,32,93,69,41,29.91,29.80,29.68,10,10,7,10,4,16,0.00,0,,53
2012-10-21,69,55,41,50,42,36,87,67,38,29.97,29.93,29.89,10,10,7,16,7,20,0.00,0,,142
2012-10-22,62,58,55,59,55,50,94,88,77,29.94,29.91,29.87,10,5,0,9,6,,0.97,7,Fog-Rain,97
2012-10-23,73,66,59,70,59,55,94,84,64,29.90,29.86,29.80,10,5,0,13,8,20,0.02,8,Fog-Rain,46
2012-10-24,77,70,62,64,62,59,94,79,61,29.88,29.82,29.74,10,8,3,18,9,25,0.00,6,,13
2012-10-25,69,54,39,63,50,30,94,80,70,30.11,29.77,29.59,10,9,2,23,14,34,0.18,7,Rain,312
2012-10-26,46,39,32,30,27,23,87,65,40,30.34,30.28,30.12,10,10,10,17,9,28,0.00,1,,302
2012-10-27,44,36,28,30,22,16,93,60,34,30.36,30.31,30.27,10,10,10,12,2,18,0.00,1,,2
2012-10-28,46,38,30,23,21,19,69,51,34,30.34,30.31,30.28,10,10,2,12,4,16,0.00,0,,39
2012-10-29,50,40,30,28,21,12,75,51,24,30.35,30.29,30.16,10,10,10,10,4,,0.00,0,,19
2012-10-30,48,40,33,27,22,14,75,53,25,30.16,29.99,29.89,10,10,10,24,12,32,0.00,0,,340
2012-10-31,50,40,30,27,18,5,75,51,16,29.91,29.89,29.85,10,10,10,17,12,23,0.00,0,,322